createdAt,value
2023-03-22T00:02:26.269Z,71.10
2023-03-22T00:04:53.684Z,70.90
2023-03-22T00:07:20.679Z,70.90
2023-03-22T00:09:47.620Z,70.80
2023-03-22T00:12:14.435Z,70.70
2023-03-22T00:14:41.513Z,70.90
2023-03-22T00:17:08.395Z,71.00
2023-03-22T00:19:35.218Z,71.10
2023-03-22T00:22:03.607Z,71.20
2023-03-22T00:24:30.403Z,71.10
2023-03-22T00:26:58.637Z,71.10
2023-03-22T00:29:25.875Z,71.20
2023-03-22T00:31:54.401Z,71.20
2023-03-22T00:34:21.361Z,71.30
2023-03-22T00:36:48.470Z,71.30
2023-03-22T00:39:15.721Z,71.20
2023-03-22T00:41:43.370Z,71.20
2023-03-22T00:44:11.805Z,71.10
2023-03-22T00:46:38.543Z,71.20
2023-03-22T00:49:05.581Z,71.40
2023-03-22T00:51:32.548Z,71.60
2023-03-22T00:53:59.358Z,71.70
2023-03-22T00:56:28.987Z,71.70
2023-03-22T00:59:16.858Z,71.80
2023-03-22T01:01:44.423Z,71.90
2023-03-22T01:04:17.859Z,71.90
2023-03-22T01:06:47.025Z,71.80
2023-03-22T01:09:16.652Z,71.80
2023-03-22T01:11:44.348Z,71.80
2023-03-22T01:14:13.866Z,71.90
2023-03-22T01:16:40.980Z,72.00
2023-03-22T01:19:08.433Z,72.00
2023-03-22T01:21:35.451Z,72.10
2023-03-22T01:24:05.088Z,72.10
2023-03-22T01:26:31.971Z,72.10
2023-03-22T01:28:59.022Z,72.20
2023-03-22T01:31:25.996Z,72.20
2023-03-22T01:33:52.828Z,72.20
2023-03-22T01:36:21.513Z,72.40
2023-03-22T01:38:48.293Z,72.60
2023-03-22T01:41:17.316Z,72.80
2023-03-22T01:43:45.025Z,73.00
2023-03-22T01:46:12.392Z,73.00
2023-03-22T01:48:46.374Z,73.00
2023-03-22T01:51:24.790Z,73.00
2023-03-22T01:54:06.874Z,73.00
2023-03-22T01:56:37.679Z,72.90
2023-03-22T01:59:07.931Z,72.90
2023-03-22T02:01:54.162Z,72.70
2023-03-22T02:04:23.814Z,72.70
2023-03-22T02:06:57.958Z,72.60
2023-03-22T02:09:29.791Z,72.70
2023-03-22T02:12:37.445Z,72.70
2023-03-22T02:15:30.119Z,73.70
2023-03-22T02:18:18.986Z,72.90
2023-03-22T02:21:16.392Z,73.00
2023-03-22T02:24:15.093Z,73.20
2023-03-22T02:27:00.269Z,73.40
2023-03-22T02:29:45.980Z,73.60
2023-03-22T02:32:31.075Z,73.70
2023-03-22T02:35:16.090Z,73.80
2023-03-22T02:38:14.081Z,74.00
2023-03-22T02:40:52.069Z,74.30
2023-03-22T02:43:34.209Z,74.60
2023-03-22T02:46:16.344Z,74.80
2023-03-22T02:48:55.191Z,75.00
2023-03-22T02:51:29.579Z,75.10
2023-03-22T02:54:03.100Z,75.20
2023-03-22T02:56:46.324Z,75.30
2023-03-22T02:59:14.146Z,75.20
2023-03-22T03:01:46.123Z,75.30
2023-03-22T03:04:20.732Z,75.40
2023-03-22T03:06:50.861Z,75.50
2023-03-22T03:09:20.514Z,75.80
2023-03-22T03:11:53.015Z,76.00
2023-03-22T03:14:28.742Z,76.10
2023-03-22T03:17:10.809Z,76.20
2023-03-22T03:20:02.279Z,76.10
2023-03-22T03:22:59.859Z,76.00
2023-03-22T03:25:51.102Z,75.90
2023-03-22T03:28:23.006Z,75.70
2023-03-22T03:31:01.206Z,75.70
2023-03-22T03:33:29.308Z,75.60
2023-03-22T03:36:02.689Z,75.60
2023-03-22T03:38:34.724Z,75.60
2023-03-22T03:41:05.080Z,75.50
2023-03-22T03:43:34.247Z,75.40
2023-03-22T03:46:02.050Z,75.40
2023-03-22T03:48:31.864Z,75.20
2023-03-22T03:51:01.444Z,75.20
2023-03-22T03:53:30.120Z,75.30
2023-03-22T03:55:57.111Z,75.30
2023-03-22T03:58:25.034Z,75.30
2023-03-22T04:00:52.083Z,75.30
2023-03-22T04:03:55.543Z,75.20
2023-03-22T04:06:52.109Z,75.00
2023-03-22T04:09:24.576Z,75.00
2023-03-22T04:11:56.754Z,75.10
2023-03-22T04:14:25.180Z,75.00
2023-03-22T04:16:56.045Z,75.00
2023-03-22T04:19:24.542Z,75.10
2023-03-22T04:21:53.172Z,75.20
2023-03-22T04:24:21.674Z,75.20
2023-03-22T04:26:52.377Z,75.20
2023-03-22T04:29:25.280Z,75.30
2023-03-22T04:31:58.421Z,75.40
2023-03-22T04:34:53.227Z,75.30
2023-03-22T04:37:22.650Z,75.30
2023-03-22T04:39:54.464Z,75.20
2023-03-22T04:42:57.592Z,75.20
2023-03-22T04:45:48.811Z,75.20
2023-03-22T04:48:22.375Z,75.30
2023-03-22T04:50:53.295Z,75.10
2023-03-22T04:53:27.578Z,75.00
2023-03-22T04:55:59.033Z,74.90
2023-03-22T04:58:27.616Z,74.90
2023-03-22T05:00:54.632Z,74.80
2023-03-22T05:03:22.844Z,74.80
2023-03-22T05:05:56.356Z,74.70
2023-03-22T05:08:28.626Z,74.70
2023-03-22T05:10:56.802Z,74.70
2023-03-22T05:13:27.394Z,74.60
2023-03-22T05:15:55.122Z,74.60
2023-03-22T05:18:29.376Z,74.50
2023-03-22T05:20:58.804Z,74.70
2023-03-22T05:23:26.082Z,74.70
2023-03-22T05:25:58.382Z,74.70
2023-03-22T05:28:27.207Z,74.70
2023-03-22T05:31:04.673Z,74.70
2023-03-22T05:33:46.739Z,74.70
2023-03-22T05:36:16.984Z,74.70
2023-03-22T05:39:02.791Z,74.70
2023-03-22T05:41:31.884Z,74.70
2023-03-22T05:43:58.807Z,74.60
2023-03-22T05:46:26.069Z,74.70
2023-03-22T05:49:12.260Z,74.80
2023-03-22T05:51:42.145Z,74.90
2023-03-22T05:54:10.725Z,75.00
2023-03-22T05:56:44.210Z,74.90
2023-03-22T05:59:11.033Z,75.00
2023-03-22T06:01:39.532Z,75.00
2023-03-22T06:04:21.225Z,75.00
2023-03-22T06:06:57.599Z,74.90
2023-03-22T06:09:40.762Z,74.90
2023-03-22T06:12:11.993Z,74.70
2023-03-22T06:14:39.545Z,75.50
2023-03-22T06:17:13.789Z,74.60
2023-03-22T06:19:41.313Z,74.50
2023-03-22T06:22:09.858Z,74.40
2023-03-22T06:24:40.704Z,74.50
2023-03-22T06:27:09.965Z,75.00
2023-03-22T06:29:39.223Z,74.60
2023-03-22T06:32:07.542Z,74.70
2023-03-22T06:34:34.481Z,75.10
2023-03-22T06:37:02.276Z,76.10
2023-03-22T06:39:35.252Z,74.40
2023-03-22T06:42:02.921Z,73.10
2023-03-22T06:44:30.242Z,72.30
2023-03-22T06:47:35.656Z,71.80
2023-03-22T06:50:20.983Z,71.50
2023-03-22T06:52:56.346Z,71.20
2023-03-22T06:55:23.508Z,71.10
2023-03-22T06:57:50.772Z,71.10
2023-03-22T07:00:18.310Z,70.70
2023-03-22T07:02:45.457Z,70.40
2023-03-22T07:05:32.568Z,70.20
2023-03-22T07:07:59.384Z,70.30
2023-03-22T07:10:26.950Z,70.20
2023-03-22T07:12:53.789Z,70.30
2023-03-22T07:15:24.535Z,71.50
2023-03-22T07:18:03.317Z,71.60
2023-03-22T07:20:36.871Z,70.80
2023-03-22T07:23:04.686Z,71.40
2023-03-22T07:25:35.985Z,71.30
2023-03-22T07:28:16.635Z,71.60
2023-03-22T07:30:43.772Z,71.40
2023-03-22T07:33:11.342Z,71.30
2023-03-22T07:35:38.989Z,71.10
2023-03-22T07:38:06.540Z,70.90
2023-03-22T07:40:34.010Z,70.90
2023-03-22T07:43:00.930Z,70.60
2023-03-22T07:45:41.142Z,70.40
2023-03-22T07:48:28.897Z,70.60
2023-03-22T07:51:07.418Z,71.20
2023-03-22T07:53:35.044Z,70.50
2023-03-22T07:56:01.896Z,70.30
2023-03-22T07:58:29.330Z,69.80
2023-03-22T08:00:58.630Z,70.30
2023-03-22T08:03:44.385Z,69.70
2023-03-22T08:06:27.304Z,69.10
2023-03-22T08:08:54.203Z,69.10
2023-03-22T08:11:21.129Z,67.60
2023-03-22T08:13:48.245Z,66.80
2023-03-22T08:16:15.199Z,66.30
2023-03-22T08:18:44.420Z,66.30
2023-03-22T08:21:12.690Z,66.10
2023-03-22T08:23:42.024Z,66.00
2023-03-22T08:26:22.472Z,66.20
2023-03-22T08:28:51.907Z,66.50
2023-03-22T08:31:20.098Z,66.60
2023-03-22T08:33:47.544Z,67.10
2023-03-22T08:36:17.358Z,66.90
2023-03-22T08:38:50.400Z,67.20
2023-03-22T08:41:20.662Z,66.90
2023-03-22T08:43:47.793Z,66.90
2023-03-22T08:46:15.375Z,66.90
2023-03-22T08:48:50.367Z,67.00
2023-03-22T08:51:23.189Z,66.80
2023-03-22T08:54:01.857Z,66.50
2023-03-22T08:57:09.558Z,66.70
2023-03-22T09:00:00.210Z,67.20
2023-03-22T09:02:43.904Z,66.80
2023-03-22T09:05:10.916Z,67.40
2023-03-22T09:07:38.402Z,66.60
2023-03-22T09:10:11.743Z,66.90
2023-03-22T09:12:42.430Z,67.20
2023-03-22T09:15:10.036Z,67.30
2023-03-22T09:17:39.812Z,66.90
2023-03-22T09:20:12.778Z,67.10
2023-03-22T09:22:44.256Z,67.60
2023-03-22T09:25:14.054Z,68.10
2023-03-22T09:27:43.622Z,68.60
2023-03-22T09:30:11.401Z,68.80
2023-03-22T09:32:40.880Z,68.80
2023-03-22T09:35:08.889Z,69.30
2023-03-22T09:37:45.678Z,70.00
2023-03-22T09:40:13.348Z,70.10
2023-03-22T09:42:51.441Z,70.50
2023-03-22T09:45:38.051Z,71.40
2023-03-22T09:48:27.186Z,71.70
2023-03-22T09:50:54.874Z,72.00
2023-03-22T09:53:24.190Z,72.10
2023-03-22T09:55:58.594Z,72.10
2023-03-22T09:58:39.112Z,72.40
2023-03-22T10:01:28.667Z,72.40
2023-03-22T10:04:34.180Z,73.00
2023-03-22T10:07:13.121Z,72.70
2023-03-22T10:10:04.306Z,73.30
2023-03-22T10:12:52.910Z,73.20
2023-03-22T10:15:26.254Z,73.20
2023-03-22T10:17:56.439Z,73.20
2023-03-22T10:20:38.406Z,73.00
2023-03-22T10:23:10.648Z,72.90
2023-03-22T10:25:41.094Z,73.10
2023-03-22T10:28:24.962Z,73.10
2023-03-22T10:30:55.510Z,72.90
2023-03-22T10:33:31.725Z,73.00
2023-03-22T10:35:59.439Z,73.30
2023-03-22T10:38:29.324Z,73.40
2023-03-22T10:40:58.828Z,73.40
2023-03-22T10:43:35.065Z,73.30
2023-03-22T10:46:07.058Z,73.60
2023-03-22T10:48:37.551Z,73.80
2023-03-22T10:51:05.314Z,73.60
2023-03-22T10:53:46.539Z,73.70
2023-03-22T10:56:16.742Z,74.00
2023-03-22T10:58:43.563Z,74.00
2023-03-22T11:01:13.440Z,74.20
2023-03-22T11:03:43.248Z,73.90
2023-03-22T11:06:17.435Z,73.80
2023-03-22T11:08:48.156Z,73.80
2023-03-22T11:11:35.538Z,74.00
2023-03-22T11:14:02.253Z,73.70
2023-03-22T11:16:31.422Z,73.70
2023-03-22T11:19:02.123Z,74.00
2023-03-22T11:21:32.503Z,73.90
2023-03-22T11:24:05.528Z,73.60
2023-03-22T11:26:40.639Z,73.80
2023-03-22T11:29:18.737Z,73.60
2023-03-22T11:31:55.908Z,73.60
2023-03-22T11:34:26.425Z,73.30
2023-03-22T11:36:59.138Z,73.30
2023-03-22T11:39:30.287Z,73.30
2023-03-22T11:42:03.977Z,72.90
2023-03-22T11:44:38.088Z,72.90
2023-03-22T11:47:08.509Z,73.00
2023-03-22T11:49:48.677Z,72.70
2023-03-22T11:52:20.066Z,72.50
2023-03-22T11:54:47.858Z,72.80
2023-03-22T11:57:23.022Z,72.60
2023-03-22T12:00:02.029Z,72.70
2023-03-22T12:02:39.077Z,72.30
2023-03-22T12:05:18.949Z,72.10
2023-03-22T12:07:48.626Z,72.30
2023-03-22T12:10:40.909Z,72.40
2023-03-22T12:13:17.997Z,72.20
2023-03-22T12:16:07.862Z,72.30
2023-03-22T12:18:45.436Z,72.10
2023-03-22T12:21:12.412Z,72.10
2023-03-22T12:23:39.799Z,71.90
2023-03-22T12:26:15.488Z,71.90
2023-03-22T12:28:54.473Z,72.20
2023-03-22T12:31:36.165Z,72.20
2023-03-22T12:34:17.385Z,72.20
2023-03-22T12:36:48.349Z,71.80
2023-03-22T12:39:42.942Z,71.80
2023-03-22T12:42:22.692Z,71.80
2023-03-22T12:45:04.113Z,71.60
2023-03-22T12:47:48.282Z,71.60
2023-03-22T12:50:25.513Z,71.80
2023-03-22T12:52:56.686Z,71.40
2023-03-22T12:55:36.105Z,71.40
2023-03-22T12:58:06.629Z,71.60
2023-03-22T13:00:40.677Z,71.80
2023-03-22T13:03:20.420Z,71.60
2023-03-22T13:05:58.770Z,71.70
2023-03-22T13:08:25.725Z,71.70
2023-03-22T13:11:02.478Z,71.80
2023-03-22T13:13:29.819Z,71.20
2023-03-22T13:15:56.761Z,71.40
2023-03-22T13:18:32.580Z,71.70
2023-03-22T13:21:23.819Z,71.70
2023-03-22T13:24:05.909Z,71.70
2023-03-22T13:26:51.706Z,71.60
2023-03-22T13:29:21.922Z,71.60
2023-03-22T13:32:19.732Z,71.60
2023-03-22T13:34:51.900Z,71.50
2023-03-22T13:37:30.403Z,71.60
2023-03-22T13:40:02.171Z,71.80
2023-03-22T13:42:38.209Z,71.60
2023-03-22T13:45:09.411Z,71.70
2023-03-22T13:47:43.918Z,71.80
2023-03-22T13:50:18.784Z,71.90
2023-03-22T13:53:04.158Z,72.10
2023-03-22T13:55:43.152Z,72.40
2023-03-22T13:58:38.429Z,72.50
2023-03-22T14:01:28.308Z,73.00
2023-03-22T14:04:01.389Z,73.40
2023-03-22T14:06:33.697Z,73.70
2023-03-22T14:09:13.595Z,73.70
2023-03-22T14:11:55.252Z,73.80
2023-03-22T14:14:29.550Z,73.80
2023-03-22T14:17:23.035Z,74.20
2023-03-22T14:19:51.796Z,74.00
